Time;durP1;ratioP1;P1;durP2;ratioP2;P2;SDS_P1;SDS_P2;PMS_P1;PMS_P2;Temp;Humidity;BMP_temperature;BMP_pressure;BME280_temperature;BME280_humidity;BME280_pressure;Samples;Min_cycle;Max_cycle;Signal;HPM_P1;HPM_P2
2022/09/16 00:00:52;;;;;;;9.60;6.20;;;13.20;99.90;;;;;;5036462;28;20636;-85
2022/09/16 00:03:19;;;;;;;6.97;6.37;;;13.20;99.90;;;;;;5029235;28;20635;-85
2022/09/16 00:05:48;;;;;;;5.90;5.40;;;13.60;99.90;;;;;;5048596;28;21274;-85
2022/09/16 00:08:17;;;;;;;7.00;6.40;;;13.50;99.90;;;;;;5026583;28;20630;-85
2022/09/16 00:10:44;;;;;;;9.03;6.20;;;13.60;99.90;;;;;;5025477;28;20632;-85
2022/09/16 00:13:12;;;;;;;6.03;5.63;;;13.60;99.90;;;;;;5044618;28;20650;-85
2022/09/16 00:15:42;;;;;;;6.97;6.23;;;13.60;99.90;;;;;;5039111;28;20655;-86
2022/09/16 00:18:09;;;;;;;6.30;5.70;;;13.60;99.90;;;;;;5036060;28;20666;-83
2022/09/16 00:20:36;;;;;;;8.67;5.60;;;13.60;99.90;;;;;;5043799;28;20630;-82
2022/09/16 00:23:03;;;;;;;6.30;5.80;;;13.70;99.90;;;;;;5050234;28;20619;-82
2022/09/16 00:25:32;;;;;;;7.73;5.77;;;13.70;99.90;;;;;;5056107;28;20643;-82
2022/09/16 00:27:59;;;;;;;5.83;5.20;;;13.70;99.90;;;;;;5041849;28;21209;-85
2022/09/16 00:30:26;;;;;;;7.80;6.90;;;13.70;99.90;;;;;;5033619;28;20639;-85
2022/09/16 00:32:52;;;;;;;5.23;4.80;;;13.30;99.90;;;;;;5055916;28;20627;-82
2022/09/16 00:35:20;;;;;;;5.87;5.40;;;13.70;99.90;;;;;;5034137;28;20665;-82
2022/09/16 00:37:47;;;;;;;6.10;5.43;;;13.70;99.90;;;;;;5045856;28;20752;-82
2022/09/16 00:40:13;;;;;;;5.93;5.43;;;13.80;99.90;;;;;;5055038;28;20636;-84
2022/09/16 00:42:42;;;;;;;6.87;6.23;;;13.80;99.90;;;;;;5046587;28;20627;-85
2022/09/16 00:45:16;;;;;;;9.63;5.40;;;13.80;99.90;;;;;;5036488;28;20657;-84
2022/09/16 00:47:47;;;;;;;8.53;6.00;;;13.80;99.90;;;;;;5055021;28;20713;-85
2022/09/16 00:50:19;;;;;;;7.50;6.20;;;13.80;99.90;;;;;;5050593;28;20692;-85
2022/09/16 00:52:47;;;;;;;6.17;5.20;;;13.90;99.90;;;;;;5048954;28;20627;-85
2022/09/16 00:55:18;;;;;;;5.90;5.50;;;13.80;99.90;;;;;;5023458;28;20662;-85
2022/09/16 00:57:47;;;;;;;6.17;5.57;;;13.80;99.90;;;;;;5047974;28;22128;-85
2022/09/16 01:00:14;;;;;;;5.67;5.27;;;13.80;99.90;;;;;;5037100;28;20717;-85
2022/09/16 01:02:43;;;;;;;7.20;5.57;;;13.90;99.90;;;;;;5031793;28;20770;-85
2022/09/16 01:05:13;;;;;;;5.77;5.33;;;13.80;99.90;;;;;;5052473;28;20657;-85
2022/09/16 01:07:43;;;;;;;6.07;5.50;;;13.80;99.90;;;;;;5024491;28;20634;-86
2022/09/16 01:10:11;;;;;;;6.30;5.87;;;13.90;99.90;;;;;;5023773;28;20634;-85
2022/09/16 01:12:38;;;;;;;9.13;6.33;;;13.60;99.90;;;;;;5023516;28;20659;-85
2022/09/16 01:15:07;;;;;;;5.80;5.20;;;13.80;99.90;;;;;;5006233;28;20680;-85
2022/09/16 01:18:05;;;;;;;6.53;5.93;;;13.80;99.90;;;;;;5023422;28;20663;-85
2022/09/16 01:21:10;;;;;;;9.80;6.27;;;13.90;99.90;;;;;;5017368;28;20643;-85
2022/09/16 01:24:06;;;;;;;8.63;6.47;;;13.90;99.90;;;;;;5041253;28;20650;-85
2022/09/16 01:26:58;;;;;;;6.63;5.90;;;13.40;99.90;;;;;;5016169;28;20630;-85
2022/09/16 01:29:50;;;;;;;8.20;5.97;;;13.80;99.90;;;;;;5017981;28;20615;-85
2022/09/16 01:32:22;;;;;;;6.93;6.43;;;13.80;99.90;;;;;;5029745;28;20636;-86
2022/09/16 01:34:57;;;;;;;6.73;5.80;;;13.40;99.90;;;;;;5024858;28;21031;-85
2022/09/16 01:37:32;;;;;;;6.17;5.57;;;13.80;99.90;;;;;;5018717;28;20671;-86
2022/09/16 01:40:08;;;;;;;14.50;6.40;;;13.80;99.90;;;;;;5016265;28;20642;-86
2022/09/16 01:42:39;;;;;;;7.93;6.00;;;13.80;99.90;;;;;;5025167;28;21238;-85
2022/09/16 01:45:14;;;;;;;7.40;6.20;;;13.90;99.90;;;;;;5019349;28;20673;-85
2022/09/16 01:47:50;;;;;;;7.20;6.60;;;13.90;99.90;;;;;;5024100;28;20621;-83
2022/09/16 01:50:24;;;;;;;6.00;5.57;;;13.90;99.90;;;;;;5019334;28;20626;-83
2022/09/16 01:52:59;;;;;;;6.63;6.13;;;13.90;99.90;;;;;;5024584;28;20617;-83
2022/09/16 01:55:33;;;;;;;6.77;6.07;;;13.80;99.90;;;;;;5032174;28;20653;-83
2022/09/16 01:58:04;;;;;;;8.20;7.50;;;13.80;99.90;;;;;;5037773;28;20698;-83
2022/09/16 02:00:31;;;;;;;6.90;6.27;;;13.40;99.90;;;;;;5016442;28;20629;-83
2022/09/16 02:03:03;;;;;;;6.10;5.70;;;13.70;99.90;;;;;;5032150;28;20659;-82
2022/09/16 02:05:34;;;;;;;6.83;6.13;;;13.70;99.90;;;;;;5019866;28;20690;-83
2022/09/16 02:08:06;;;;;;;8.00;6.23;;;13.70;99.90;;;;;;5048437;28;20627;-83
2022/09/16 02:10:37;;;;;;;6.77;6.27;;;13.60;99.90;;;;;;5024809;28;20635;-82
2022/09/16 02:13:09;;;;;;;8.50;5.57;;;13.60;99.90;;;;;;5019088;28;20639;-85
2022/09/16 02:15:38;;;;;;;6.73;6.10;;;13.50;99.90;;;;;;5021348;28;20651;-85
2022/09/16 02:18:11;;;;;;;5.67;5.17;;;13.60;99.90;;;;;;5022749;28;20672;-85
2022/09/16 02:20:42;;;;;;;6.63;6.03;;;13.60;99.90;;;;;;5036808;28;21608;-85
2022/09/16 02:23:14;;;;;;;6.00;5.50;;;13.60;99.90;;;;;;5022643;28;20647;-85
2022/09/16 02:25:43;;;;;;;6.93;5.90;;;13.60;99.90;;;;;;5025612;28;20906;-85
2022/09/16 02:28:15;;;;;;;6.50;5.50;;;13.30;99.90;;;;;;5021614;28;20632;-85
2022/09/16 02:30:45;;;;;;;6.63;5.87;;;13.60;99.90;;;;;;5028477;28;20635;-85
2022/09/16 02:33:16;;;;;;;8.00;5.70;;;13.40;99.90;;;;;;5025559;28;20654;-85
2022/09/16 02:35:47;;;;;;;7.93;7.13;;;13.60;99.90;;;;;;5023168;28;20667;-83
2022/09/16 02:38:17;;;;;;;10.00;6.67;;;13.60;99.90;;;;;;5037478;28;20712;-83
2022/09/16 02:40:48;;;;;;;6.73;6.20;;;13.60;99.90;;;;;;5010153;28;21002;-83
2022/09/16 02:43:15;;;;;;;8.63;6.80;;;13.60;99.90;;;;;;5018294;28;20632;-84
2022/09/16 02:45:51;;;;;;;7.73;7.03;;;13.40;99.90;;;;;;5022095;28;20655;-84
2022/09/16 02:48:27;;;;;;;8.23;7.43;;;13.60;99.90;;;;;;5034160;28;20624;-83
2022/09/16 02:51:02;;;;;;;11.37;6.87;;;13.60;99.90;;;;;;5019858;28;20647;-84
2022/09/16 02:53:39;;;;;;;8.10;6.90;;;13.10;99.90;;;;;;5023980;28;20654;-84
2022/09/16 02:56:15;;;;;;;7.40;6.57;;;13.60;99.90;;;;;;5023977;28;20640;-84
2022/09/16 02:58:41;;;;;;;10.43;6.93;;;13.50;99.90;;;;;;5019822;28;20666;-84
2022/09/16 03:01:11;;;;;;;8.70;6.30;;;13.50;99.90;;;;;;5022886;28;20644;-84
2022/09/16 03:03:39;;;;;;;6.90;6.37;;;13.30;99.90;;;;;;5025496;28;20634;-84
2022/09/16 03:06:19;;;;;;;7.90;7.10;;;13.60;99.90;;;;;;5023722;28;21172;-83
2022/09/16 03:08:47;;;;;;;7.43;6.53;;;13.50;99.90;;;;;;5024261;28;20615;-84
2022/09/16 03:11:25;;;;;;;6.30;5.90;;;13.10;99.90;;;;;;5032919;28;20631;-84
2022/09/16 03:14:02;;;;;;;11.00;6.77;;;13.20;99.90;;;;;;5036015;28;20671;-83
2022/09/16 03:16:36;;;;;;;6.77;5.87;;;13.20;99.90;;;;;;5021889;28;21144;-84
2022/09/16 03:19:16;;;;;;;8.93;7.00;;;13.50;99.90;;;;;;5013801;28;20667;-84
2022/09/16 03:21:52;;;;;;;7.03;6.43;;;13.10;99.90;;;;;;5019874;28;20628;-83
2022/09/16 03:24:28;;;;;;;9.83;6.73;;;13.50;99.90;;;;;;5028941;28;20639;-85
2022/09/16 03:26:59;;;;;;;9.20;5.90;;;13.50;99.90;;;;;;5033560;28;20639;-84
2022/09/16 03:29:32;;;;;;;10.23;5.83;;;13.10;99.90;;;;;;5020757;28;20635;-83
2022/09/16 03:32:03;;;;;;;6.13;5.63;;;13.40;99.90;;;;;;5024003;28;20996;-83
2022/09/16 03:34:35;;;;;;;6.80;6.17;;;13.40;99.90;;;;;;5019934;28;20666;-84
2022/09/16 03:37:06;;;;;;;7.67;5.07;;;13.30;99.90;;;;;;5030008;28;20632;-83
2022/09/16 03:39:34;;;;;;;5.00;4.60;;;13.50;99.90;;;;;;5033402;28;20753;-84
2022/09/16 03:42:02;;;;;;;6.30;5.13;;;13.30;99.90;;;;;;5030739;28;20607;-83
2022/09/16 03:44:33;;;;;;;6.03;5.50;;;13.50;99.90;;;;;;5040146;28;21074;-83
2022/09/16 03:47:00;;;;;;;7.10;5.30;;;13.50;99.90;;;;;;5012472;28;20667;-83
2022/09/16 03:49:27;;;;;;;6.10;5.50;;;13.50;99.90;;;;;;5017007;28;21024;-83
2022/09/16 03:51:55;;;;;;;6.03;5.40;;;13.50;99.90;;;;;;5018684;28;21128;-83
2022/09/16 03:54:23;;;;;;;6.20;5.10;;;13.50;99.90;;;;;;5017552;28;20627;-83
2022/09/16 03:56:50;;;;;;;5.50;5.00;;;13.60;99.90;;;;;;5006517;28;20643;-84
2022/09/16 03:59:17;;;;;;;6.13;5.00;;;13.60;99.90;;;;;;5005314;28;20700;-84
2022/09/16 04:01:44;;;;;;;5.60;5.10;;;13.60;99.90;;;;;;5025830;28;21150;-85
2022/09/16 04:04:12;;;;;;;10.60;6.13;;;13.30;99.90;;;;;;5014497;28;20659;-84
2022/09/16 04:06:38;;;;;;;6.87;5.70;;;13.50;99.90;;;;;;5019402;28;20619;-84
2022/09/16 04:09:07;;;;;;;6.17;5.50;;;13.40;99.90;;;;;;5017284;28;20663;-84
2022/09/16 04:11:34;;;;;;;6.10;5.60;;;13.60;99.90;;;;;;5019134;28;21013;-84
2022/09/16 04:14:14;;;;;;;4.90;4.50;;;13.70;99.90;;;;;;5016086;28;21066;-83
2022/09/16 04:16:41;;;;;;;9.23;5.83;;;13.80;99.90;;;;;;5017911;28;20654;-84
2022/09/16 04:19:10;;;;;;;8.47;5.90;;;13.60;99.90;;;;;;5021996;28;20675;-84
2022/09/16 04:21:36;;;;;;;6.10;5.50;;;13.60;99.90;;;;;;5017355;28;20628;-84
2022/09/16 04:24:03;;;;;;;5.83;5.07;;;13.60;99.90;;;;;;5018707;28;20639;-84
2022/09/16 04:26:32;;;;;;;7.53;4.90;;;13.90;99.90;;;;;;5017716;28;20632;-84
2022/09/16 04:28:59;;;;;;;5.60;5.07;;;13.40;99.90;;;;;;5011375;28;20659;-84
2022/09/16 04:31:25;;;;;;;6.93;5.43;;;13.70;99.90;;;;;;5010994;28;20626;-84
2022/09/16 04:33:52;;;;;;;8.53;5.50;;;13.70;99.90;;;;;;5009120;28;20636;-84
2022/09/16 04:36:20;;;;;;;5.97;5.37;;;13.60;99.90;;;;;;5013995;28;20642;-84
2022/09/16 04:38:48;;;;;;;5.00;4.60;;;13.60;99.90;;;;;;5026564;28;20693;-84
2022/09/16 04:41:17;;;;;;;4.00;3.70;;;13.60;99.90;;;;;;5008247;28;20624;-85
2022/09/16 04:43:45;;;;;;;6.10;4.53;;;13.60;99.90;;;;;;5012940;28;20634;-83
2022/09/16 04:46:13;;;;;;;5.13;4.00;;;13.70;99.90;;;;;;5019233;28;20619;-84
2022/09/16 04:48:39;;;;;;;4.83;4.43;;;13.30;99.90;;;;;;5023170;28;20639;-84
2022/09/16 04:51:08;;;;;;;4.90;3.60;;;13.50;99.90;;;;;;5015171;28;20978;-84
2022/09/16 04:53:35;;;;;;;5.47;4.13;;;13.40;99.90;;;;;;5015518;28;20638;-85
2022/09/16 04:56:07;;;;;;;7.57;4.20;;;13.60;99.90;;;;;;5021971;28;20681;-84
2022/09/16 04:58:34;;;;;;;5.10;4.50;;;13.70;99.90;;;;;;5024323;28;21319;-84
2022/09/16 05:01:06;;;;;;;7.83;4.70;;;13.70;99.90;;;;;;5013117;28;20667;-83
2022/09/16 05:03:33;;;;;;;6.53;6.00;;;13.60;99.90;;;;;;5022733;28;20636;-84
2022/09/16 05:06:12;;;;;;;16.20;14.60;;;13.70;99.90;;;;;;5013734;28;20636;-83
2022/09/16 05:08:40;;;;;;;16.47;10.73;;;13.70;99.90;;;;;;5034383;28;21010;-83
2022/09/16 05:11:08;;;;;;;5.83;5.33;;;13.70;99.90;;;;;;5022811;28;20638;-83
2022/09/16 05:13:36;;;;;;;7.63;5.03;;;13.80;99.90;;;;;;5015873;28;20687;-84
2022/09/16 05:16:09;;;;;;;16.40;14.80;;;13.70;99.90;;;;;;5015149;28;20632;-84
2022/09/16 05:18:37;;;;;;;9.00;8.20;;;13.70;99.90;;;;;;5017261;28;20684;-83
2022/09/16 05:21:06;;;;;;;6.33;5.73;;;13.70;99.90;;;;;;5017882;28;20635;-83
2022/09/16 05:23:33;;;;;;;6.67;5.60;;;13.70;99.90;;;;;;5019625;28;20632;-83
2022/09/16 05:26:03;;;;;;;7.47;6.70;;;13.70;99.90;;;;;;5013615;28;20646;-84
2022/09/16 05:28:30;;;;;;;9.37;5.17;;;13.70;99.90;;;;;;5018452;28;20683;-84
2022/09/16 05:31:09;;;;;;;5.80;5.27;;;13.70;99.90;;;;;;5014789;28;20638;-84
2022/09/16 05:33:36;;;;;;;7.43;5.80;;;13.70;99.90;;;;;;5021773;28;20624;-83
2022/09/16 05:36:08;;;;;;;4.70;4.33;;;13.80;99.90;;;;;;5017314;28;20632;-81
2022/09/16 05:38:35;;;;;;;3.90;3.60;;;13.70;99.90;;;;;;5026645;28;20672;-82
2022/09/16 05:41:03;;;;;;;4.63;4.00;;;13.80;99.90;;;;;;5018997;28;20634;-82
2022/09/16 05:43:30;;;;;;;4.50;4.20;;;13.70;99.90;;;;;;5021664;28;21293;-82
2022/09/16 05:45:57;;;;;;;4.93;4.43;;;13.80;99.90;;;;;;5025763;28;20635;-82
2022/09/16 05:48:25;;;;;;;7.03;4.00;;;13.80;99.90;;;;;;5017810;28;20657;-82
2022/09/16 05:50:53;;;;;;;5.27;3.73;;;13.60;99.90;;;;;;5006489;28;20634;-83
2022/09/16 05:53:20;;;;;;;3.70;2.80;;;13.90;99.90;;;;;;5012201;28;20635;-83
2022/09/16 05:55:55;;;;;;;4.07;3.77;;;13.80;99.90;;;;;;5013524;28;20662;-82
2022/09/16 05:58:22;;;;;;;4.23;3.07;;;13.90;99.90;;;;;;5020295;28;20668;-82
2022/09/16 06:00:49;;;;;;;6.10;3.57;;;14.00;99.90;;;;;;5014925;28;20633;-82
2022/09/16 06:03:16;;;;;;;3.70;3.40;;;14.00;99.90;;;;;;5039634;28;20647;-83
2022/09/16 06:05:44;;;;;;;5.93;3.70;;;14.00;99.90;;;;;;5029458;28;20637;-83
2022/09/16 06:08:11;;;;;;;4.40;3.20;;;14.10;99.90;;;;;;5021270;28;20666;-83
2022/09/16 06:10:38;;;;;;;5.60;3.80;;;14.00;99.90;;;;;;5022755;28;20631;-83
2022/09/16 06:13:05;;;;;;;7.80;3.93;;;14.10;99.90;;;;;;5024666;28;20635;-82
2022/09/16 06:15:33;;;;;;;5.37;4.87;;;14.10;99.90;;;;;;5022946;28;20647;-83
2022/09/16 06:17:59;;;;;;;5.93;4.83;;;14.20;99.90;;;;;;5039932;28;20654;-83
2022/09/16 06:20:26;;;;;;;5.23;3.77;;;14.30;99.90;;;;;;5019979;28;20699;-83
2022/09/16 06:22:54;;;;;;;5.77;4.63;;;14.30;99.90;;;;;;5036062;28;20681;-82
2022/09/16 06:25:21;;;;;;;5.83;4.33;;;14.30;99.90;;;;;;5024924;28;20624;-82
2022/09/16 06:27:48;;;;;;;4.10;3.40;;;14.30;99.90;;;;;;5020371;28;21219;-82
2022/09/16 06:30:15;;;;;;;4.13;3.47;;;14.20;99.90;;;;;;5019881;28;20701;-83
2022/09/16 06:32:41;;;;;;;5.13;3.60;;;14.20;99.90;;;;;;5038725;28;20651;-84
2022/09/16 06:35:08;;;;;;;3.40;3.10;;;14.20;99.90;;;;;;5033479;28;20636;-83
2022/09/16 06:37:35;;;;;;;4.87;3.90;;;14.10;99.90;;;;;;5020902;28;21153;-84
2022/09/16 06:40:04;;;;;;;5.07;3.53;;;14.10;99.90;;;;;;5014620;28;20669;-82
2022/09/16 06:42:30;;;;;;;5.23;3.10;;;14.10;99.90;;;;;;5025948;28;21190;-82
2022/09/16 06:44:57;;;;;;;4.57;4.17;;;14.10;99.90;;;;;;5032931;28;20681;-82
2022/09/16 06:47:24;;;;;;;4.07;3.67;;;14.20;99.90;;;;;;5025906;28;20660;-82
2022/09/16 06:49:51;;;;;;;4.20;3.80;;;14.20;99.90;;;;;;5031159;28;20688;-82
2022/09/16 06:52:18;;;;;;;8.20;4.63;;;14.10;99.90;;;;;;5034500;28;20659;-83
2022/09/16 06:54:46;;;;;;;5.50;3.33;;;14.20;99.90;;;;;;5043401;28;20643;-82
2022/09/16 06:57:14;;;;;;;7.00;4.80;;;14.10;99.90;;;;;;5046702;28;20627;-85
2022/09/16 06:59:40;;;;;;;7.17;3.83;;;13.90;99.90;;;;;;5032053;28;20664;-82
2022/09/16 07:02:09;;;;;;;4.57;4.03;;;14.10;99.90;;;;;;5036160;28;20662;-81
2022/09/16 07:04:36;;;;;;;4.80;4.00;;;14.10;99.90;;;;;;5035838;28;20631;-82
2022/09/16 07:07:03;;;;;;;7.17;4.00;;;14.10;99.90;;;;;;5016874;28;20634;-82
2022/09/16 07:09:30;;;;;;;7.93;3.80;;;14.00;99.90;;;;;;5027933;28;20630;-82
2022/09/16 07:11:59;;;;;;;11.73;4.13;;;14.00;99.90;;;;;;5035946;28;20658;-81
2022/09/16 07:14:27;;;;;;;11.03;4.10;;;14.10;99.90;;;;;;5030502;28;20619;-81
2022/09/16 07:16:54;;;;;;;5.93;3.83;;;14.10;99.90;;;;;;5031125;28;20631;-83
2022/09/16 07:19:21;;;;;;;12.20;4.27;;;14.10;99.90;;;;;;5018276;28;20670;-82
2022/09/16 07:21:47;;;;;;;8.63;4.07;;;14.10;99.90;;;;;;5022672;28;20974;-82
2022/09/16 07:24:14;;;;;;;5.10;3.60;;;14.10;99.90;;;;;;5033276;28;20727;-82
2022/09/16 07:26:42;;;;;;;4.47;3.07;;;14.10;99.90;;;;;;5026174;28;20662;-81
2022/09/16 07:29:12;;;;;;;5.37;3.27;;;14.10;99.90;;;;;;5018061;28;20794;-81
2022/09/16 07:31:40;;;;;;;3.43;3.10;;;14.10;99.90;;;;;;5026854;28;21234;-81
2022/09/16 07:34:09;;;;;;;4.20;2.43;;;14.00;99.90;;;;;;5024318;28;20650;-81
2022/09/16 07:36:37;;;;;;;2.93;2.50;;;14.00;99.90;;;;;;5022429;28;20960;-80
2022/09/16 07:39:05;;;;;;;3.30;3.00;;;14.00;99.90;;;;;;5020203;28;20678;-80
2022/09/16 07:41:34;;;;;;;4.53;2.90;;;14.10;99.90;;;;;;5029081;28;20659;-83
2022/09/16 07:44:02;;;;;;;6.60;2.57;;;14.00;99.90;;;;;;5032198;28;20645;-83
2022/09/16 07:46:31;;;;;;;4.17;2.50;;;14.00;99.90;;;;;;5032235;28;21239;-84
2022/09/16 07:49:01;;;;;;;4.40;2.73;;;14.00;99.90;;;;;;5020499;28;20721;-81
2022/09/16 07:51:28;;;;;;;3.80;2.90;;;14.10;99.90;;;;;;5031034;28;20663;-81
2022/09/16 07:53:58;;;;;;;3.10;2.77;;;14.10;99.90;;;;;;5022763;28;21222;-81
2022/09/16 07:56:27;;;;;;;5.53;2.80;;;14.20;99.90;;;;;;5025522;28;20630;-81
2022/09/16 07:58:56;;;;;;;3.57;2.80;;;14.20;99.90;;;;;;5031932;28;20646;-81
2022/09/16 08:01:24;;;;;;;3.47;2.90;;;14.20;99.90;;;;;;5029194;28;20639;-81
2022/09/16 08:03:50;;;;;;;3.37;2.70;;;14.20;99.90;;;;;;5012621;28;20629;-80
2022/09/16 08:06:21;;;;;;;4.10;2.90;;;14.30;99.90;;;;;;5011404;28;20663;-80
2022/09/16 08:08:48;;;;;;;3.30;3.00;;;14.30;99.90;;;;;;5024022;28;20615;-81
2022/09/16 08:11:15;;;;;;;5.43;2.97;;;14.30;99.90;;;;;;5039313;28;20708;-80
2022/09/16 08:13:44;;;;;;;3.60;2.60;;;14.30;99.90;;;;;;5034197;28;20713;-81
2022/09/16 08:16:12;;;;;;;4.13;3.10;;;14.30;99.90;;;;;;5025699;28;20688;-80
2022/09/16 08:18:40;;;;;;;2.70;2.50;;;14.30;99.90;;;;;;5029804;28;20630;-81
2022/09/16 08:21:07;;;;;;;3.30;2.50;;;14.30;99.90;;;;;;5052313;28;20658;-81
2022/09/16 08:23:36;;;;;;;2.93;2.63;;;14.40;99.90;;;;;;5025959;28;20631;-81
2022/09/16 08:26:04;;;;;;;4.90;3.23;;;14.50;99.90;;;;;;5048526;28;20638;-80
2022/09/16 08:28:32;;;;;;;3.00;2.70;;;14.60;99.90;;;;;;5029389;28;20631;-81
2022/09/16 08:30:59;;;;;;;3.53;2.50;;;14.60;99.90;;;;;;5022290;28;20693;-81
2022/09/16 08:33:26;;;;;;;6.37;3.40;;;14.60;99.90;;;;;;5049472;28;20739;-81
2022/09/16 08:36:00;;;;;;;2.73;2.53;;;14.70;99.90;;;;;;5025086;28;20643;-81
2022/09/16 08:38:27;;;;;;;3.30;2.50;;;14.70;99.90;;;;;;5039759;28;20990;-80
2022/09/16 08:41:01;;;;;;;4.23;2.90;;;14.70;99.90;;;;;;5023974;28;21121;-80
2022/09/16 08:43:35;;;;;;;3.90;3.20;;;14.80;99.90;;;;;;5018731;28;20651;-81
2022/09/16 08:46:08;;;;;;;3.80;3.50;;;14.90;99.90;;;;;;5034713;28;20626;-81
2022/09/16 08:48:43;;;;;;;4.13;2.43;;;14.90;99.90;;;;;;5030283;28;21044;-82
2022/09/16 08:51:16;;;;;;;6.20;3.13;;;14.90;99.90;;;;;;5021803;28;20979;-81
2022/09/16 08:53:47;;;;;;;3.63;3.07;;;14.90;99.90;;;;;;5028101;28;21321;-81
2022/09/16 08:56:19;;;;;;;4.80;3.40;;;15.00;99.90;;;;;;5024483;28;20638;-81
2022/09/16 08:58:47;;;;;;;4.40;4.00;;;14.90;99.90;;;;;;5021148;28;20646;-82
2022/09/16 09:01:20;;;;;;;3.90;3.60;;;14.90;99.90;;;;;;5024783;28;20755;-81
2022/09/16 09:03:48;;;;;;;4.40;4.00;;;15.00;99.90;;;;;;5018563;28;20623;-81
2022/09/16 09:06:25;;;;;;;4.53;4.07;;;15.00;99.90;;;;;;5021118;28;20669;-82
2022/09/16 09:09:02;;;;;;;4.27;3.87;;;15.00;99.90;;;;;;5022260;28;20634;-81
2022/09/16 09:11:38;;;;;;;6.20;4.90;;;14.90;99.90;;;;;;5040124;28;20660;-81
2022/09/16 09:14:18;;;;;;;5.77;4.20;;;15.10;99.90;;;;;;5016052;28;20645;-81
2022/09/16 09:16:53;;;;;;;9.87;5.33;;;15.00;99.90;;;;;;5030811;28;20614;-81
2022/09/16 09:19:40;;;;;;;5.47;4.50;;;15.10;99.90;;;;;;5042871;28;20622;-80
2022/09/16 09:22:18;;;;;;;7.37;4.90;;;15.10;99.90;;;;;;5041078;28;20660;-81
2022/09/16 09:24:59;;;;;;;6.10;5.00;;;15.30;99.90;;;;;;5027963;28;20630;-81
2022/09/16 09:27:35;;;;;;;6.50;5.00;;;15.20;99.90;;;;;;5013051;28;20985;-81
2022/09/16 09:30:13;;;;;;;7.80;5.60;;;15.40;99.90;;;;;;5020099;28;20983;-81
2022/09/16 09:32:58;;;;;;;5.60;5.07;;;15.60;99.90;;;;;;5031461;28;21038;-81
2022/09/16 09:35:38;;;;;;;5.97;4.90;;;15.70;99.90;;;;;;5031561;28;20645;-82
2022/09/16 09:38:36;;;;;;;5.63;5.13;;;15.80;99.90;;;;;;5032543;28;20740;-83
2022/09/16 09:41:09;;;;;;;4.73;4.33;;;15.90;99.90;;;;;;5034802;28;20666;-82
2022/09/16 09:43:43;;;;;;;6.47;5.37;;;15.90;99.90;;;;;;5033935;28;20631;-82
2022/09/16 09:46:17;;;;;;;6.80;5.80;;;15.80;99.90;;;;;;5043384;28;20623;-83
2022/09/16 09:48:48;;;;;;;6.67;5.63;;;15.80;99.90;;;;;;5023943;28;20631;-82
2022/09/16 09:51:22;;;;;;;8.37;5.50;;;15.90;99.90;;;;;;5025360;28;20716;-82
2022/09/16 09:53:52;;;;;;;5.67;4.67;;;15.90;99.90;;;;;;5015921;28;21015;-82
2022/09/16 09:56:23;;;;;;;4.60;4.20;;;16.00;99.90;;;;;;5016198;28;20652;-82
2022/09/16 09:59:00;;;;;;;5.13;4.63;;;15.90;99.90;;;;;;5033333;28;20769;-81
2022/09/16 10:01:27;;;;;;;4.40;4.10;;;15.90;99.90;;;;;;5046252;28;20739;-83
2022/09/16 10:03:57;;;;;;;4.40;4.00;;;15.80;99.90;;;;;;5047779;28;21183;-82
2022/09/16 10:06:28;;;;;;;6.10;4.20;;;15.80;99.90;;;;;;5031782;28;20704;-82
2022/09/16 10:08:57;;;;;;;4.27;3.63;;;15.90;99.90;;;;;;5027817;28;20731;-83
2022/09/16 10:11:25;;;;;;;5.50;3.77;;;16.00;99.90;;;;;;5032298;28;20627;-83
2022/09/16 10:13:56;;;;;;;5.60;3.30;;;15.90;99.90;;;;;;5026362;28;21228;-82
2022/09/16 10:16:27;;;;;;;3.17;2.73;;;15.90;99.90;;;;;;5019888;28;20659;-82
2022/09/16 10:18:58;;;;;;;3.30;2.87;;;15.80;99.90;;;;;;5019471;28;20635;-82
2022/09/16 10:21:25;;;;;;;5.00;3.33;;;15.90;99.90;;;;;;5031050;28;21298;-81
2022/09/16 10:23:57;;;;;;;4.00;3.10;;;15.90;99.90;;;;;;5037373;28;20642;-82
2022/09/16 10:26:26;;;;;;;3.13;2.80;;;15.90;99.90;;;;;;5033451;28;20646;-83
2022/09/16 10:28:56;;;;;;;3.40;3.00;;;15.90;99.90;;;;;;5030435;28;20687;-82
2022/09/16 10:31:25;;;;;;;3.80;2.40;;;16.00;99.90;;;;;;5030488;28;20640;-83
2022/09/16 10:33:52;;;;;;;3.50;2.20;;;16.00;99.90;;;;;;5026273;28;20639;-83
2022/09/16 10:36:21;;;;;;;4.67;3.10;;;16.10;99.90;;;;;;5035423;28;20635;-82
2022/09/16 10:38:51;;;;;;;6.93;2.70;;;16.10;99.90;;;;;;5043672;28;20640;-82
2022/09/16 10:41:21;;;;;;;5.30;2.90;;;16.10;99.90;;;;;;5036203;28;20671;-82
2022/09/16 10:43:51;;;;;;;3.90;2.70;;;16.00;99.90;;;;;;5009773;28;20628;-81
2022/09/16 10:46:20;;;;;;;4.50;2.70;;;16.00;99.90;;;;;;5022168;28;20655;-81
2022/09/16 10:48:50;;;;;;;4.77;3.13;;;16.00;99.90;;;;;;5013790;28;20623;-81
2022/09/16 10:51:23;;;;;;;7.80;3.10;;;16.00;99.90;;;;;;5022914;28;20671;-81
2022/09/16 10:53:55;;;;;;;4.73;3.10;;;16.10;99.90;;;;;;5058689;28;20696;-82
2022/09/16 10:56:24;;;;;;;3.03;2.83;;;16.10;99.90;;;;;;5017241;28;20982;-81
2022/09/16 10:59:02;;;;;;;3.77;3.07;;;16.20;99.90;;;;;;5040092;28;20639;-81
2022/09/16 11:01:37;;;;;;;3.23;2.87;;;16.20;99.90;;;;;;5030241;28;20679;-81
2022/09/16 11:04:31;;;;;;;4.27;3.23;;;16.10;99.90;;;;;;5026375;28;20663;-80
2022/09/16 11:07:09;;;;;;;4.20;2.70;;;16.10;99.90;;;;;;5007744;28;20635;-81
2022/09/16 11:09:48;;;;;;;3.70;3.00;;;16.00;99.90;;;;;;5022171;28;21128;-81
2022/09/16 11:12:31;;;;;;;3.23;2.50;;;15.90;99.90;;;;;;5021139;28;20663;-80
2022/09/16 11:15:07;;;;;;;4.17;2.50;;;15.90;99.90;;;;;;5011564;28;20611;-86
2022/09/16 11:17:47;;;;;;;4.83;2.63;;;15.80;99.90;;;;;;5025963;28;20611;-82
2022/09/16 11:20:37;;;;;;;4.27;2.60;;;15.90;99.90;;;;;;5033653;28;20659;-82
2022/09/16 11:23:13;;;;;;;4.07;3.57;;;15.80;99.90;;;;;;5017757;28;20648;-82
2022/09/16 11:25:51;;;;;;;8.63;3.77;;;15.90;99.90;;;;;;5026297;28;20630;-83
2022/09/16 11:28:41;;;;;;;5.57;3.00;;;15.80;99.90;;;;;;5023729;28;20677;-83
2022/09/16 11:31:15;;;;;;;3.33;2.87;;;15.80;99.90;;;;;;5037041;28;20658;-83
2022/09/16 11:33:50;;;;;;;5.90;3.40;;;15.80;99.90;;;;;;5016461;28;21508;-83
2022/09/16 11:36:38;;;;;;;6.50;2.50;;;15.70;99.90;;;;;;5025663;28;20634;-83
2022/09/16 11:39:22;;;;;;;2.97;2.73;;;15.80;99.90;;;;;;5027339;28;21272;-83
2022/09/16 11:41:59;;;;;;;4.60;2.90;;;15.80;99.90;;;;;;5020597;28;20671;-83
2022/09/16 11:44:37;;;;;;;3.10;2.80;;;15.70;99.90;;;;;;5019063;28;20662;-82
2022/09/16 11:47:18;;;;;;;4.17;2.73;;;15.60;99.90;;;;;;5012478;28;20611;-83
2022/09/16 11:50:07;;;;;;;5.67;2.60;;;15.60;99.90;;;;;;5034735;28;20615;-83
2022/09/16 11:52:51;;;;;;;3.17;2.43;;;15.70;99.90;;;;;;5035758;28;20684;-83
2022/09/16 11:55:29;;;;;;;4.57;2.80;;;15.70;99.90;;;;;;5017895;28;20654;-83
2022/09/16 11:58:01;;;;;;;4.43;2.90;;;15.80;99.90;;;;;;5021517;28;20634;-83
2022/09/16 12:00:31;;;;;;;3.60;3.03;;;15.90;99.90;;;;;;5022361;28;20667;-83
2022/09/16 12:03:02;;;;;;;2.77;2.50;;;15.90;99.90;;;;;;5013985;28;20659;-83
2022/09/16 12:05:37;;;;;;;5.33;2.97;;;16.00;99.90;;;;;;5022683;28;21223;-83
2022/09/16 12:08:10;;;;;;;4.03;2.00;;;16.10;99.90;;;;;;5025552;28;20706;-82
2022/09/16 12:10:43;;;;;;;3.70;2.00;;;16.20;99.90;;;;;;5024712;28;20618;-83
2022/09/16 12:13:14;;;;;;;2.20;2.00;;;16.50;99.90;;;;;;5016035;28;21464;-84
2022/09/16 12:15:45;;;;;;;3.93;2.00;;;16.60;99.90;;;;;;5021651;28;20643;-82
2022/09/16 12:18:17;;;;;;;5.10;1.90;;;16.90;99.90;;;;;;5037869;28;20691;-83
2022/09/16 12:20:50;;;;;;;4.70;1.63;;;17.10;99.90;;;;;;5020733;28;20657;-83
2022/09/16 12:23:18;;;;;;;2.80;1.53;;;17.50;99.90;;;;;;5029882;28;21024;-85
2022/09/16 12:25:51;;;;;;;3.80;1.87;;;17.80;99.90;;;;;;5035200;28;20630;-84
2022/09/16 12:28:24;;;;;;;10.80;1.97;;;18.30;99.90;;;;;;5021273;28;20652;-84
2022/09/16 12:31:03;;;;;;;2.83;1.60;;;19.10;99.90;;;;;;5038680;28;20627;-83
2022/09/16 12:33:34;;;;;;;2.90;1.30;;;19.50;99.90;;;;;;5025301;28;20675;-83
2022/09/16 12:36:07;;;;;;;1.90;1.60;;;19.60;99.90;;;;;;5020953;28;21143;-83
2022/09/16 12:38:34;;;;;;;2.37;1.60;;;19.50;99.90;;;;;;5017491;28;20643;-83
2022/09/16 12:41:17;;;;;;;3.77;1.80;;;19.50;99.10;;;;;;5048937;28;21026;-84
2022/09/16 12:44:13;;;;;;;2.97;1.40;;;19.40;99.70;;;;;;5012133;28;20719;-83
2022/09/16 12:47:15;;;;;;;3.43;1.73;;;19.30;99.90;;;;;;5028676;28;20643;-83
2022/09/16 12:50:07;;;;;;;4.63;1.53;;;19.10;99.60;;;;;;5032437;28;20634;-83
2022/09/16 12:52:56;;;;;;;1.00;1.00;;;18.90;99.90;;;;;;5028729;28;20694;-83
2022/09/16 12:55:46;;;;;;;5.30;1.23;;;18.70;99.90;;;;;;5016867;28;21102;-83
2022/09/16 12:58:51;;;;;;;1.67;1.50;;;18.60;99.90;;;;;;5021072;28;20634;-83
2022/09/16 13:01:22;;;;;;;2.93;1.40;;;18.40;99.90;;;;;;5017510;28;21095;-83
2022/09/16 13:03:54;;;;;;;7.03;1.40;;;18.10;99.90;;;;;;5008512;28;20660;-83
2022/09/16 13:06:25;;;;;;;7.53;1.90;;;18.00;99.90;;;;;;5016438;28;20953;-83
2022/09/16 13:08:54;;;;;;;4.57;1.47;;;17.80;99.90;;;;;;5028186;28;20650;-83